Time;durP1;ratioP1;P1;durP2;ratioP2;P2;SDS_P1;SDS_P2;PMS_P1;PMS_P2;Temp;Humidity;BMP_temperature;BMP_pressure;BME280_temperature;BME280_humidity;BME280_pressure;Samples;Min_cycle;Max_cycle;Signal;HPM_P1;HPM_P2
2022/07/15 00:00:37;;;;;;;19.02;16.93;;;;;;;17.92;91.09;98489.75;2170588;81;20996;-82
2022/07/15 00:03:38;;;;;;;18.77;16.73;;;;;;;17.91;91.48;98490.66;2170677;81;20964;-82
2022/07/15 00:06:38;;;;;;;25.55;23.32;;;;;;;17.91;91.32;98501.22;2170442;81;21020;-82
2022/07/15 00:12:57;;;;;;;26.05;23.75;;;;;;;17.98;91.88;98509.86;2170907;81;21028;-82
2022/07/15 00:15:58;;;;;;;23.65;21.15;;;;;;;18.02;92.52;98503.61;2171020;81;20996;-82
2022/07/15 00:18:58;;;;;;;19.82;18.23;;;;;;;18.07;91.92;98501.27;2170823;81;21388;-82
2022/07/15 00:21:58;;;;;;;25.77;23.45;;;;;;;18.07;92.01;98496.44;2170226;81;20969;-81
2022/07/15 00:24:59;;;;;;;25.37;23.07;;;;;;;18.07;92.04;98488.52;2170852;81;20984;-81
2022/07/15 00:28:00;;;;;;;26.75;24.23;;;;;;;18.08;91.79;98494.22;2171098;81;21003;-81
2022/07/15 00:31:00;;;;;;;25.48;23.32;;;;;;;18.07;92.10;98494.67;2171327;81;21479;-81
2022/07/15 00:34:00;;;;;;;20.85;18.92;;;;;;;18.07;91.95;98494.67;2171497;81;20941;-82
2022/07/15 00:37:01;;;;;;;26.07;23.73;;;;;;;18.09;92.19;98495.50;2170882;81;20969;-82
2022/07/15 00:40:01;;;;;;;25.27;22.87;;;;;;;18.11;92.14;98495.47;2170920;81;20978;-82
2022/07/15 00:43:01;;;;;;;20.30;18.42;;;;;;;18.10;92.62;98501.66;2171011;81;20960;-81
2022/07/15 00:46:02;;;;;;;23.38;21.07;;;;;;;18.04;92.20;98499.16;2171086;80;20961;-82
2022/07/15 00:49:02;;;;;;;18.10;16.50;;;;;;;17.98;92.82;98497.98;2171005;81;20937;-81
2022/07/15 00:52:03;;;;;;;21.93;19.12;;;;;;;17.95;93.15;98493.64;2170640;81;21678;-81
2022/07/15 00:55:03;;;;;;;16.02;14.45;;;;;;;17.90;92.68;98495.97;2170545;82;20961;-81
2022/07/15 00:58:03;;;;;;;22.07;20.23;;;;;;;17.87;92.63;98492.95;2170903;81;21001;-82
2022/07/15 01:01:04;;;;;;;24.30;22.07;;;;;;;17.87;92.79;98498.68;2170810;81;20962;-81
2022/07/15 01:04:04;;;;;;;27.15;24.25;;;;;;;17.85;92.69;98494.75;2170343;81;20956;-80
2022/07/15 01:07:04;;;;;;;15.30;13.93;;;;;;;17.84;92.88;98490.38;2170895;81;20933;-81
2022/07/15 01:10:05;;;;;;;18.20;13.78;;;;;;;17.85;93.62;98493.89;2171139;81;21016;-81
2022/07/15 01:13:05;;;;;;;12.58;11.43;;;;;;;17.81;94.01;98500.55;2170538;81;21383;-81
2022/07/15 01:16:06;;;;;;;12.70;11.45;;;;;;;17.70;93.84;98499.93;2170749;81;20937;-81
2022/07/15 01:19:06;;;;;;;14.18;12.75;;;;;;;17.62;93.56;98498.33;2170949;81;21021;-82
2022/07/15 01:22:07;;;;;;;14.23;12.90;;;;;;;17.55;93.38;98500.23;2170633;82;21379;-81
2022/07/15 01:25:07;;;;;;;22.32;20.12;;;;;;;17.51;94.03;98496.79;2171121;81;20984;-81
2022/07/15 01:28:07;;;;;;;17.20;14.85;;;;;;;17.51;93.72;98503.84;2171051;81;20972;-81
2022/07/15 01:31:08;;;;;;;18.27;16.57;;;;;;;17.48;94.91;98499.95;2170886;81;21022;-81
2022/07/15 01:34:08;;;;;;;17.40;14.18;;;;;;;17.46;95.41;98505.25;2170772;81;20996;-81
2022/07/15 01:37:08;;;;;;;17.60;15.53;;;;;;;17.42;95.38;98507.98;2170953;81;20979;-81
2022/07/15 01:40:09;;;;;;;19.90;16.52;;;;;;;17.38;96.04;98519.51;2171195;81;20973;-81
2022/07/15 01:43:09;;;;;;;18.12;16.25;;;;;;;17.32;96.12;98515.64;2170730;82;21332;-82
2022/07/15 01:46:10;;;;;;;22.17;16.77;;;;;;;17.22;96.60;98519.37;2171009;81;20972;-82
2022/07/15 01:49:22;;;;;;;20.68;15.78;;;;;;;17.14;96.53;98519.06;2171062;81;20973;-81
2022/07/15 01:52:24;;;;;;;17.85;16.10;;;;;;;17.05;96.54;98519.70;2171148;81;21011;-81
2022/07/15 01:55:23;;;;;;;17.12;15.38;;;;;;;16.94;95.70;98525.62;2173156;81;20984;-82
2022/07/15 01:58:23;;;;;;;17.77;15.48;;;;;;;16.82;95.71;98521.00;2173723;81;20925;-80
2022/07/15 02:01:23;;;;;;;16.62;15.00;;;;;;;16.72;95.31;98523.83;2174360;81;21387;-81
2022/07/15 02:04:24;;;;;;;20.75;16.77;;;;;;;16.63;95.57;98530.09;2173197;81;20925;-81
2022/07/15 02:07:24;;;;;;;17.87;14.70;;;;;;;16.55;95.14;98524.96;2172954;81;21008;-82
2022/07/15 02:10:25;;;;;;;19.05;15.63;;;;;;;16.51;95.05;98527.67;2173602;81;20965;-80
2022/07/15 02:13:25;;;;;;;17.27;15.10;;;;;;;16.41;95.04;98540.09;2172984;82;20970;-81
2022/07/15 02:16:26;;;;;;;17.32;15.48;;;;;;;16.33;95.32;98541.98;2172893;81;20965;-80
2022/07/15 02:19:26;;;;;;;20.10;15.28;;;;;;;16.23;95.34;98555.75;2172740;81;21029;-83
2022/07/15 02:22:27;;;;;;;18.27;15.72;;;;;;;16.16;95.87;98565.95;2173318;81;20948;-81
2022/07/15 02:25:27;;;;;;;19.87;15.25;;;;;;;16.08;96.23;98567.83;2173219;81;20929;-81
2022/07/15 02:28:27;;;;;;;19.87;14.38;;;;;;;15.99;96.05;98571.91;2172919;81;21008;-81
2022/07/15 02:31:28;;;;;;;18.02;13.80;;;;;;;15.90;96.07;98568.96;2172526;81;20929;-82
2022/07/15 02:34:28;;;;;;;15.30;13.90;;;;;;;15.81;95.60;98562.95;2172991;81;20981;-83
2022/07/15 02:37:28;;;;;;;19.73;12.40;;;;;;;15.74;94.91;98559.53;2172847;81;21400;-82
2022/07/15 02:40:30;;;;;;;17.95;12.93;;;;;;;15.67;95.30;98574.98;2172846;81;20965;-81
2022/07/15 02:43:29;;;;;;;20.32;12.50;;;;;;;15.57;94.60;98577.23;2172918;82;20996;-81
2022/07/15 02:46:31;;;;;;;14.03;10.82;;;;;;;15.48;94.46;98575.58;2172917;81;21001;-81
2022/07/15 02:49:30;;;;;;;13.95;11.18;;;;;;;15.39;93.89;98574.83;2173772;81;21040;-81
2022/07/15 02:52:30;;;;;;;15.68;10.18;;;;;;;15.35;93.13;98574.44;2173008;81;21004;-81
2022/07/15 02:55:31;;;;;;;14.93;9.70;;;;;;;15.25;92.60;98564.02;2170989;81;20989;-81
2022/07/15 02:58:31;;;;;;;22.32;10.70;;;;;;;15.11;92.09;98559.36;2171771;81;20913;-82
2022/07/15 03:01:32;;;;;;;34.85;10.08;;;;;;;15.04;92.22;98559.44;2171301;81;21027;-83
2022/07/15 03:04:32;;;;;;;11.35;8.63;;;;;;;14.96;91.86;98556.45;2171789;81;20977;-83
2022/07/15 03:07:33;;;;;;;12.07;8.23;;;;;;;14.93;91.90;98564.81;2171219;82;20973;-83
2022/07/15 03:10:33;;;;;;;12.85;8.70;;;;;;;14.92;92.24;98574.45;2171135;81;20996;-82
2022/07/15 03:13:34;;;;;;;14.78;8.85;;;;;;;14.92;92.15;98588.03;2170686;81;20960;-82
2022/07/15 03:16:34;;;;;;;16.57;9.58;;;;;;;14.88;91.82;98598.14;2170590;81;20925;-81
2022/07/15 03:19:34;;;;;;;11.03;7.78;;;;;;;14.84;91.36;98596.43;2170235;81;20952;-80
2022/07/15 03:22:35;;;;;;;12.93;7.47;;;;;;;14.80;91.16;98610.04;2179256;80;21328;-81
2022/07/15 03:25:35;;;;;;;12.50;7.15;;;;;;;14.72;90.46;98617.52;2178064;81;21052;-81
2022/07/15 03:28:36;;;;;;;12.37;6.72;;;;;;;14.63;90.17;98620.66;2177216;81;20972;-80
2022/07/15 03:31:37;;;;;;;15.00;6.40;;;;;;;14.60;89.82;98627.25;2178593;81;20992;-83
2022/07/15 03:34:36;;;;;;;12.47;6.67;;;;;;;14.57;89.46;98628.59;2178407;81;21332;-81
2022/07/15 03:37:37;;;;;;;15.48;6.87;;;;;;;14.56;89.46;98643.05;2178190;81;20941;-81
2022/07/15 03:40:37;;;;;;;8.23;6.25;;;;;;;14.56;89.21;98650.48;2179166;81;20952;-81
2022/07/15 03:43:38;;;;;;;16.45;6.67;;;;;;;14.56;89.33;98663.61;2179333;81;20944;-82
2022/07/15 03:46:38;;;;;;;8.00;6.00;;;;;;;14.53;89.08;98664.95;2178554;81;21322;-82
2022/07/15 03:49:39;;;;;;;8.80;5.33;;;;;;;14.49;89.28;98670.23;2178761;81;20956;-83
2022/07/15 03:52:42;;;;;;;10.65;5.70;;;;;;;14.47;89.03;98670.24;2178781;81;20901;-82
2022/07/15 03:55:42;;;;;;;10.90;5.35;;;;;;;14.45;88.75;98677.27;2177833;81;20976;-82
2022/07/15 03:58:44;;;;;;;10.88;5.53;;;;;;;14.45;88.53;98687.77;2178230;81;20957;-81
2022/07/15 04:01:43;;;;;;;13.13;5.60;;;;;;;14.44;88.03;98691.27;2178424;81;21000;-81
2022/07/15 04:04:43;;;;;;;9.95;4.92;;;;;;;14.43;87.70;98690.84;2178539;81;21008;-82
2022/07/15 04:07:44;;;;;;;9.05;4.62;;;;;;;14.42;87.55;98703.54;2178193;81;20917;-81
2022/07/15 04:10:44;;;;;;;8.63;4.30;;;;;;;14.46;87.74;98700.02;2177681;81;20937;-81
2022/07/15 04:13:45;;;;;;;11.08;5.25;;;;;;;14.52;87.48;98701.73;2177718;81;20944;-82
2022/07/15 04:16:45;;;;;;;12.33;4.83;;;;;;;14.59;87.65;98703.44;2177695;81;20944;-82
2022/07/15 04:19:45;;;;;;;9.33;4.50;;;;;;;14.74;87.30;98709.03;2177976;81;21418;-82
2022/07/15 04:22:49;;;;;;;11.00;5.10;;;;;;;14.91;86.69;98713.75;2177540;81;20928;-81
2022/07/15 04:25:52;;;;;;;71.70;20.75;;;;;;;15.06;85.69;98719.33;2178258;81;21015;-83
2022/07/15 04:28:53;;;;;;;21.00;7.10;;;;;;;15.21;85.75;98724.02;2178092;82;20932;-80
2022/07/15 04:31:53;;;;;;;18.98;7.80;;;;;;;15.37;84.73;98727.83;2177417;81;21673;-81
2022/07/15 04:34:54;;;;;;;16.15;6.62;;;;;;;15.58;84.46;98731.15;2177499;81;20977;-82
2022/07/15 04:37:55;;;;;;;16.30;6.30;;;;;;;15.76;84.01;98738.02;2177679;82;21399;-82
2022/07/15 04:40:57;;;;;;;10.98;5.70;;;;;;;15.93;83.09;98739.14;2177996;82;21008;-84
2022/07/15 04:44:00;;;;;;;11.48;4.35;;;;;;;16.10;82.13;98743.77;2122197;83;21705;-80
2022/07/15 04:47:02;;;;;;;11.70;3.50;;;;;;;16.24;80.57;98739.66;2172111;82;20897;-81
2022/07/15 04:53:19;;;;;;;14.03;3.65;;;;;;;16.73;78.15;98742.56;2177032;80;20933;-82
2022/07/15 04:56:20;;;;;;;7.80;3.80;;;;;;;16.79;77.42;98758.73;2167563;81;21325;-83
2022/07/15 04:59:20;;;;;;;11.15;4.08;;;;;;;16.66;81.35;98755.84;2167183;81;20910;-84
2022/07/15 05:02:21;;;;;;;10.38;3.80;;;;;;;17.03;81.77;98749.14;2168665;81;20984;-84
2022/07/15 05:05:21;;;;;;;9.88;4.10;;;;;;;17.49;79.74;98756.33;2168821;82;20989;-84
2022/07/15 05:08:21;;;;;;;10.28;3.85;;;;;;;17.67;76.65;98757.80;2167069;81;21388;-83
2022/07/15 05:11:22;;;;;;;16.95;3.75;;;;;;;17.49;77.43;98755.00;2168292;81;20973;-83
2022/07/15 05:14:25;;;;;;;10.15;3.77;;;;;;;17.55;77.78;98756.22;2168538;81;20957;-83
2022/07/15 05:17:26;;;;;;;11.85;3.70;;;;;;;17.56;78.20;98759.28;2168978;81;20972;-83
2022/07/15 05:20:26;;;;;;;10.35;4.17;;;;;;;17.49;74.01;98764.24;2169347;81;20969;-84
2022/07/15 05:23:26;;;;;;;10.18;3.70;;;;;;;17.35;74.10;98771.52;2168806;81;21014;-81
2022/07/15 05:26:27;;;;;;;11.65;3.75;;;;;;;17.18;75.15;98766.48;2170408;81;20965;-84
2022/07/15 05:29:27;;;;;;;8.03;3.70;;;;;;;17.67;78.84;98769.23;2169662;81;20993;-85
2022/07/15 05:32:28;;;;;;;7.10;3.50;;;;;;;18.04;73.20;98772.51;2169780;81;21008;-84
2022/07/15 05:35:28;;;;;;;9.63;3.40;;;;;;;18.04;74.46;98776.47;2167962;81;20941;-81
2022/07/15 05:38:28;;;;;;;6.87;3.17;;;;;;;18.45;74.48;98776.99;2167758;81;20992;-83
2022/07/15 05:41:31;;;;;;;9.53;3.45;;;;;;;18.52;70.80;98778.61;2168545;81;21396;-84
2022/07/15 05:44:29;;;;;;;8.23;3.83;;;;;;;18.59;71.51;98781.98;2169545;81;20938;-81
2022/07/15 05:47:31;;;;;;;7.72;3.20;;;;;;;18.34;69.23;98788.23;2169718;81;21004;-83
2022/07/15 05:50:30;;;;;;;8.05;3.08;;;;;;;18.14;69.32;98792.56;2167795;81;21691;-82
2022/07/15 05:53:31;;;;;;;8.03;3.33;;;;;;;18.05;69.04;98796.25;2168131;81;20993;-82
2022/07/15 05:56:31;;;;;;;16.05;3.50;;;;;;;18.20;71.03;98802.14;2170201;81;20941;-83
2022/07/15 05:59:31;;;;;;;6.85;3.12;;;;;;;18.40;69.57;98798.23;2170076;81;21026;-82
2022/07/15 06:02:32;;;;;;;9.88;3.10;;;;;;;18.72;69.43;98797.59;2169700;81;20984;-83
2022/07/15 06:05:32;;;;;;;10.68;3.00;;;;;;;18.92;69.82;98794.50;2170334;82;21380;-82
2022/07/15 06:08:33;;;;;;;5.20;2.72;;;;;;;19.28;67.88;98802.07;2169408;81;20957;-84
2022/07/15 06:11:33;;;;;;;7.12;2.45;;;;;;;19.30;65.69;98808.65;2170058;81;20972;-82
2022/07/15 06:14:34;;;;;;;7.50;2.95;;;;;;;19.00;64.69;98812.39;2171339;81;20965;-82
2022/07/15 06:17:34;;;;;;;9.08;2.52;;;;;;;18.86;64.92;98810.51;2171013;81;20909;-83
2022/07/15 06:20:34;;;;;;;4.58;2.33;;;;;;;18.87;64.84;98816.67;2171150;82;21388;-83
2022/07/15 06:23:34;;;;;;;7.05;2.90;;;;;;;18.87;64.22;98818.86;2171109;81;20906;-83
2022/07/15 06:26:35;;;;;;;8.53;2.95;;;;;;;19.03;64.73;98817.61;2170558;81;20984;-83
2022/07/15 06:29:35;;;;;;;4.12;2.60;;;;;;;19.31;64.20;98821.84;2170391;81;21463;-83
2022/07/15 06:32:36;;;;;;;8.25;2.50;;;;;;;19.44;65.09;98831.69;2170205;81;20933;-84
2022/07/15 06:35:38;;;;;;;8.88;2.25;;;;;;;19.55;61.58;98829.69;2159772;82;20961;-81
2022/07/15 06:38:38;;;;;;;10.18;2.62;;;;;;;19.42;62.08;98838.80;2170246;81;20929;-83
2022/07/15 06:41:39;;;;;;;8.18;2.77;;;;;;;19.40;60.18;98841.93;2170332;81;21044;-82
2022/07/15 06:44:39;;;;;;;8.48;2.70;;;;;;;19.35;61.81;98848.66;2170380;81;21612;-80
2022/07/15 06:47:40;;;;;;;5.58;2.40;;;;;;;19.33;62.97;98860.19;2170970;81;20968;-85
2022/07/15 06:50:40;;;;;;;12.25;3.30;;;;;;;19.42;60.32;98862.62;2171336;81;20964;-84
2022/07/15 06:53:40;;;;;;;6.47;2.55;;;;;;;19.38;60.12;98871.08;2170774;81;20929;-82
2022/07/15 06:56:41;;;;;;;5.50;2.33;;;;;;;19.36;60.99;98868.05;2167435;81;21005;-82
2022/07/15 06:59:42;;;;;;;9.93;2.50;;;;;;;19.54;59.93;98880.89;2168717;81;20961;-85
2022/07/15 07:02:42;;;;;;;5.85;2.12;;;;;;;19.50;57.98;98881.84;2168966;82;20957;-82
2022/07/15 07:05:43;;;;;;;9.60;2.52;;;;;;;19.39;58.46;98879.44;2168478;81;21392;-83
2022/07/15 07:08:46;;;;;;;4.50;2.17;;;;;;;19.35;56.82;98875.13;2169035;81;20909;-80
2022/07/15 07:11:43;;;;;;;11.78;2.40;;;;;;;19.42;59.01;98874.53;2168813;81;20941;-82
2022/07/15 07:14:44;;;;;;;4.62;2.10;;;;;;;19.61;57.39;98873.67;2167706;81;20980;-81
2022/07/15 07:17:44;;;;;;;4.53;2.47;;;;;;;19.53;57.36;98875.63;2167903;81;20929;-81
2022/07/15 07:20:45;;;;;;;6.53;2.30;;;;;;;19.95;57.92;98876.39;2168379;81;20969;-83
2022/07/15 07:23:45;;;;;;;9.20;2.40;;;;;;;20.08;55.84;98869.00;2169086;82;20944;-82
2022/07/15 07:26:45;;;;;;;9.88;2.40;;;;;;;20.01;55.71;98880.20;2169427;81;20996;-83
2022/07/15 07:29:46;;;;;;;3.30;1.80;;;;;;;20.31;55.17;98886.03;2168505;81;20909;-84
2022/07/15 07:32:46;;;;;;;11.33;3.60;;;;;;;20.34;53.87;98885.08;2169235;81;20964;-85
2022/07/15 07:35:47;;;;;;;3.55;2.20;;;;;;;20.35;53.22;98891.66;2169563;81;20945;-83
2022/07/15 07:38:47;;;;;;;6.92;2.30;;;;;;;20.40;52.52;98903.95;2169230;81;21344;-85
2022/07/15 07:41:52;;;;;;;3.05;2.02;;;;;;;20.24;52.96;98900.81;2169260;81;21024;-81
2022/07/15 07:44:48;;;;;;;4.05;1.95;;;;;;;20.33;54.63;98900.56;2168237;81;20901;-83
2022/07/15 07:47:48;;;;;;;5.53;2.70;;;;;;;20.63;52.01;98909.50;2168464;82;20981;-85
2022/07/15 07:50:49;;;;;;;7.20;2.58;;;;;;;20.36;51.64;98908.44;2168546;82;20984;-82
2022/07/15 07:53:49;;;;;;;6.50;2.80;;;;;;;20.29;52.60;98916.14;2168822;81;20961;-84
2022/07/15 07:56:50;;;;;;;13.60;3.65;;;;;;;20.57;51.94;98919.83;2168103;81;20980;-83
2022/07/15 07:59:50;;;;;;;23.38;3.42;;;;;;;20.65;52.30;98921.81;2168158;81;20949;-83
2022/07/15 08:02:50;;;;;;;6.35;2.50;;;;;;;20.40;53.06;98920.73;2168227;81;20988;-84
2022/07/15 08:05:53;;;;;;;7.25;2.58;;;;;;;20.72;52.47;98926.48;2168369;81;21019;-84
2022/07/15 08:08:51;;;;;;;4.78;2.80;;;;;;;20.75;51.18;98933.03;2169652;81;21725;-83
2022/07/15 08:11:52;;;;;;;9.53;4.80;;;;;;;20.71;51.64;98928.73;2169278;81;20937;-82
2022/07/15 08:14:54;;;;;;;4.45;2.37;;;;;;;20.62;51.51;98930.31;2168717;81;20964;-82
2022/07/15 08:17:53;;;;;;;8.08;3.22;;;;;;;20.60;51.12;98929.48;2169613;81;21412;-82
2022/07/15 08:20:54;;;;;;;10.03;2.15;;;;;;;20.48;50.19;98931.14;2170062;82;21063;-83
2022/07/15 08:23:55;;;;;;;4.10;2.05;;;;;;;20.37;51.59;98936.69;2168958;81;21327;-83
2022/07/15 08:26:55;;;;;;;4.40;1.55;;;;;;;20.86;52.40;98935.42;2167835;81;20996;-84
2022/07/15 08:29:56;;;;;;;8.05;1.87;;;;;;;21.58;47.72;98923.56;2168410;81;20968;-82
2022/07/15 08:32:56;;;;;;;4.00;1.42;;;;;;;21.60;46.13;98936.33;2168071;81;20948;-84
2022/07/15 08:35:57;;;;;;;2.35;1.20;;;;;;;21.58;44.18;98939.03;2168153;81;20945;-83
2022/07/15 08:38:57;;;;;;;6.00;2.27;;;;;;;21.42;45.50;98935.11;2168157;81;20921;-83
2022/07/15 08:41:57;;;;;;;4.53;2.42;;;;;;;21.17;46.03;98941.58;2167077;81;21746;-82
2022/07/15 08:44:58;;;;;;;10.80;2.20;;;;;;;21.04;45.89;98952.14;2167534;82;20937;-84
2022/07/15 08:47:58;;;;;;;3.92;2.00;;;;;;;20.85;46.27;98953.58;2167364;82;20989;-83
2022/07/15 08:50:58;;;;;;;5.42;2.08;;;;;;;20.90;47.27;98945.03;2167933;81;21589;-84
2022/07/15 08:53:59;;;;;;;5.60;1.95;;;;;;;20.73;46.69;98954.75;2168678;81;20937;-83
2022/07/15 08:56:59;;;;;;;9.98;1.90;;;;;;;20.38;48.63;98961.42;2169124;81;20996;-84
2022/07/15 09:00:00;;;;;;;2.87;1.50;;;;;;;20.32;48.54;98961.99;2169666;82;20968;-84
2022/07/15 09:03:00;;;;;;;6.20;1.62;;;;;;;20.71;48.05;98958.36;2168906;81;20976;-80
2022/07/15 09:06:00;;;;;;;4.62;1.57;;;;;;;20.93;48.85;98950.25;2168182;82;20937;-83
2022/07/15 09:09:01;;;;;;;4.28;1.40;;;;;;;21.52;46.76;98954.29;2169028;81;20968;-83
2022/07/15 09:12:03;;;;;;;4.00;1.92;;;;;;;21.85;45.62;98964.36;2159411;82;20952;-84
2022/07/15 09:15:04;;;;;;;4.30;1.70;;;;;;;21.89;45.31;98950.92;2168491;82;21365;-85
2022/07/15 09:18:06;;;;;;;5.92;1.65;;;;;;;22.08;45.38;98944.58;2167903;81;20909;-81
2022/07/15 09:21:04;;;;;;;2.72;1.60;;;;;;;21.30;44.86;98955.40;2168073;81;20964;-80
2022/07/15 09:24:05;;;;;;;1.87;1.20;;;;;;;21.26;45.19;98947.98;2167367;81;21706;-80
2022/07/15 09:27:05;;;;;;;7.78;1.47;;;;;;;21.34;43.85;98955.72;2165445;81;21016;-80
2022/07/15 09:33:38;;;;;;;5.33;1.90;;;;;;;21.82;43.08;98947.19;2167176;81;21664;-80
2022/07/15 09:36:37;;;;;;;5.55;1.37;;;;;;;21.77;44.50;98947.33;2167784;81;20980;-81
2022/07/15 09:39:37;;;;;;;2.50;1.27;;;;;;;21.55;40.66;98950.22;2167174;81;20980;-79
2022/07/15 09:42:38;;;;;;;3.65;1.60;;;;;;;21.50;42.45;98956.13;2167878;81;20937;-80
2022/07/15 09:45:38;;;;;;;3.80;1.70;;;;;;;21.56;41.67;98954.61;2168251;81;21373;-78
2022/07/15 09:48:38;;;;;;;3.87;1.40;;;;;;;21.44;41.03;98954.98;2168319;81;20961;-83
2022/07/15 09:51:39;;;;;;;6.90;1.92;;;;;;;21.44;41.17;98951.88;2168636;81;20972;-83
2022/07/15 09:54:39;;;;;;;10.10;1.95;;;;;;;21.61;41.54;98944.25;2167914;81;20909;-81
2022/07/15 09:57:40;;;;;;;3.67;1.57;;;;;;;21.59;39.46;98951.86;2167794;80;20975;-80
2022/07/15 10:00:40;;;;;;;3.72;1.57;;;;;;;21.51;40.25;98956.53;2170085;82;20948;-81
2022/07/15 10:03:41;;;;;;;11.25;1.92;;;;;;;21.69;40.08;98965.30;2169566;81;20940;-80
2022/07/15 10:06:41;;;;;;;4.22;1.50;;;;;;;21.71;39.44;98963.46;2169302;82;20973;-82
2022/07/15 10:09:41;;;;;;;2.58;1.25;;;;;;;21.82;39.97;98959.14;2169837;82;20925;-83
2022/07/15 10:12:42;;;;;;;3.95;1.40;;;;;;;21.86;40.54;98958.99;2169566;82;21455;-80
2022/07/15 10:15:42;;;;;;;3.85;1.50;;;;;;;21.70;39.40;98971.48;2170266;81;21385;-81
2022/07/15 10:18:42;;;;;;;2.00;1.15;;;;;;;21.92;39.25;98960.58;2170913;82;20941;-81
2022/07/15 10:21:43;;;;;;;2.77;1.60;;;;;;;22.19;38.40;98957.52;2170555;82;20952;-81
2022/07/15 10:24:43;;;;;;;4.20;1.35;;;;;;;22.86;39.70;98952.12;2171118;81;20976;-83
2022/07/15 10:27:44;;;;;;;6.42;1.30;;;;;;;22.84;37.59;98968.60;2170904;82;20988;-83
2022/07/15 10:30:44;;;;;;;1.82;1.00;;;;;;;22.83;37.80;98957.55;2170812;81;21008;-82
2022/07/15 10:33:44;;;;;;;3.62;1.27;;;;;;;22.79;37.90;98954.56;2170560;82;20925;-82
2022/07/15 10:36:45;;;;;;;3.47;1.10;;;;;;;22.82;38.51;98958.94;2170037;81;21430;-84
2022/07/15 10:39:45;;;;;;;17.57;2.12;;;;;;;23.36;38.45;98949.36;2170152;81;21028;-82
2022/07/15 10:42:46;;;;;;;11.90;2.02;;;;;;;23.54;37.18;98967.80;2169837;81;20968;-81
2022/07/15 10:45:46;;;;;;;12.43;1.87;;;;;;;22.81;37.90;98973.17;2170255;81;21281;-82
2022/07/15 10:48:46;;;;;;;5.03;1.57;;;;;;;22.17;38.84;98975.31;2170197;81;20981;-82
2022/07/15 10:51:47;;;;;;;10.70;1.37;;;;;;;22.13;38.21;98970.55;2170952;81;20933;-82
2022/07/15 10:54:47;;;;;;;3.55;1.25;;;;;;;22.34;38.39;98968.09;2170873;82;20929;-80
2022/07/15 10:57:48;;;;;;;6.10;1.30;;;;;;;22.74;38.02;98966.29;2170595;81;20925;-82
2022/07/15 11:00:48;;;;;;;2.17;1.17;;;;;;;22.30;37.80;98965.13;2171845;81;20984;-84
2022/07/15 11:03:48;;;;;;;3.55;1.30;;;;;;;21.99;38.49;98971.43;2171504;81;20977;-80
2022/07/15 11:06:49;;;;;;;7.95;1.50;;;;;;;21.73;38.83;98968.73;2171262;82;20980;-81
2022/07/15 11:09:50;;;;;;;3.00;1.47;;;;;;;21.59;37.72;98976.63;2170801;81;21292;-81
2022/07/15 11:12:50;;;;;;;3.52;1.62;;;;;;;21.73;37.89;98962.09;2170866;81;21051;-81
2022/07/15 11:15:51;;;;;;;3.15;1.35;;;;;;;22.12;38.38;98959.51;2171162;81;20984;-80
2022/07/15 11:18:51;;;;;;;1.55;1.10;;;;;;;22.70;39.18;98954.02;2170394;81;20910;-81
2022/07/15 11:21:51;;;;;;;6.72;1.42;;;;;;;22.81;38.79;98959.86;2170197;81;20956;-81
2022/07/15 11:24:52;;;;;;;3.90;1.07;;;;;;;22.75;35.16;98954.27;2169755;81;21017;-81
2022/07/15 11:27:52;;;;;;;3.27;1.20;;;;;;;22.99;35.76;98944.55;2170105;81;20944;-81
2022/07/15 11:30:55;;;;;;;5.33;1.45;;;;;;;23.71;34.81;98959.18;2170407;81;20997;-82
2022/07/15 11:33:55;;;;;;;2.77;1.05;;;;;;;23.60;35.20;98956.07;2170783;81;20917;-81
2022/07/15 11:36:56;;;;;;;1.85;1.07;;;;;;;22.92;35.87;98963.00;2170931;81;20951;-81
2022/07/15 11:39:56;;;;;;;2.70;1.10;;;;;;;22.14;36.75;98966.97;2170523;81;20976;-80
2022/07/15 11:46:15;;;;;;;3.83;1.10;;;;;;;21.96;37.34;98971.98;2169715;82;21371;-82
2022/07/15 11:49:16;;;;;;;2.42;1.07;;;;;;;22.11;35.87;98971.06;2168576;81;20980;-81
2022/07/15 11:52:16;;;;;;;5.12;1.30;;;;;;;22.34;36.22;98967.64;2169787;81;20957;-80
2022/07/15 11:55:17;;;;;;;2.15;1.22;;;;;;;22.66;35.76;98960.38;2169895;82;20964;-81
2022/07/15 11:58:17;;;;;;;5.05;1.27;;;;;;;23.16;36.21;98962.56;2170094;81;20969;-80
2022/07/15 12:01:17;;;;;;;5.53;1.65;;;;;;;22.97;35.87;98977.02;2167809;81;20948;-80
2022/07/15 12:04:18;;;;;;;2.70;1.30;;;;;;;22.58;34.35;98991.23;2167660;81;20972;-81
2022/07/15 12:07:19;;;;;;;4.15;1.20;;;;;;;22.34;34.99;98995.56;2167260;82;20956;-81
2022/07/15 12:10:19;;;;;;;4.22;1.25;;;;;;;22.31;36.32;98976.18;2166992;81;20944;-81
2022/07/15 12:13:19;;;;;;;5.53;1.27;;;;;;;22.81;36.40;98967.84;2166491;81;20964;-81
2022/07/15 12:16:19;;;;;;;2.60;1.20;;;;;;;23.32;35.50;98972.18;2166596;82;20969;-81
2022/07/15 12:19:20;;;;;;;4.05;1.00;;;;;;;23.40;33.72;98982.95;2167038;81;20949;-81
2022/07/15 12:22:23;;;;;;;4.95;1.70;;;;;;;23.05;31.80;98987.38;2166590;82;21011;-80
2022/07/15 12:25:23;;;;;;;8.40;1.17;;;;;;;22.73;32.60;98978.73;2166444;81;20917;-82
2022/07/15 12:28:24;;;;;;;4.50;1.35;;;;;;;22.55;32.82;98986.89;2166355;81;20991;-81
2022/07/15 12:31:24;;;;;;;2.65;1.15;;;;;;;22.63;32.03;98990.61;2167167;82;20977;-83
2022/07/15 12:34:24;;;;;;;4.70;1.40;;;;;;;22.71;32.82;99003.19;2167430;81;21691;-81
2022/07/15 12:37:25;;;;;;;1.90;0.95;;;;;;;23.02;33.05;98984.38;2167655;80;20941;-80
2022/07/15 12:40:25;;;;;;;2.67;1.10;;;;;;;23.12;31.79;98989.77;2168448;82;20933;-80
2022/07/15 12:43:26;;;;;;;2.05;1.12;;;;;;;23.37;32.43;98987.52;2168362;80;20957;-80
2022/07/15 12:46:26;;;;;;;3.47;0.93;;;;;;;23.80;33.64;98977.01;2169534;82;21009;-81
2022/07/15 12:49:26;;;;;;;2.67;1.22;;;;;;;23.79;32.50;98989.06;2168975;81;21000;-84
2022/07/15 12:52:27;;;;;;;5.47;1.40;;;;;;;23.06;33.57;98993.11;2168657;81;20993;-83
2022/07/15 12:55:27;;;;;;;1.87;1.10;;;;;;;22.25;33.43;98994.53;2169277;81;21349;-81
2022/07/15 12:58:28;;;;;;;2.30;1.42;;;;;;;21.90;34.68;99003.61;2170306;81;21033;-82
2022/07/15 13:01:28;;;;;;;4.05;1.72;;;;;;;22.22;35.79;98989.31;2170366;80;21044;-82
2022/07/15 13:04:28;;;;;;;2.33;1.00;;;;;;;22.56;35.03;98991.75;2169662;81;20901;-83
2022/07/15 13:07:29;;;;;;;3.37;1.50;;;;;;;23.03;35.05;98988.77;2169925;81;20925;-82
2022/07/15 13:10:29;;;;;;;3.30;1.17;;;;;;;23.04;34.61;98998.95;2169676;80;20937;-82
2022/07/15 13:13:30;;;;;;;7.30;1.40;;;;;;;22.66;33.07;98998.95;2168833;82;20929;-81
2022/07/15 13:16:30;;;;;;;5.03;1.57;;;;;;;22.83;35.14;98993.48;2169132;81;20992;-83
2022/07/15 13:19:32;;;;;;;4.08;1.40;;;;;;;22.50;35.47;99011.41;2168676;81;20901;-82
2022/07/15 13:22:31;;;;;;;3.45;1.20;;;;;;;22.27;34.79;99011.77;2167833;81;20980;-81
2022/07/15 13:25:31;;;;;;;5.67;1.42;;;;;;;21.91;34.65;99017.31;2168100;81;21413;-82
2022/07/15 13:28:32;;;;;;;9.48;1.47;;;;;;;21.90;35.92;99011.13;2167483;81;20973;-82
2022/07/15 13:31:33;;;;;;;4.03;1.52;;;;;;;22.11;35.69;99006.08;2167588;81;20973;-82
2022/07/15 13:34:32;;;;;;;2.00;1.27;;;;;;;22.50;34.02;99015.86;2167192;82;21700;-82
2022/07/15 13:37:33;;;;;;;6.72;1.65;;;;;;;22.82;33.65;99006.84;2167768;81;21407;-82
2022/07/15 13:40:33;;;;;;;4.90;1.37;;;;;;;22.91;33.79;99008.30;2168426;82;20969;-81
2022/07/15 13:43:34;;;;;;;4.58;1.47;;;;;;;22.94;34.15;99011.73;2168666;82;20964;-81
2022/07/15 13:46:34;;;;;;;5.42;1.77;;;;;;;22.56;33.24;99020.55;2168847;81;21021;-81
2022/07/15 13:52:53;;;;;;;2.80;2.00;;;;;;;22.76;34.68;99013.21;2168901;82;21626;-84
2022/07/15 13:55:54;;;;;;;2.52;1.80;;;;;;;22.90;33.91;99007.44;2168597;81;21075;-83
2022/07/15 13:58:58;;;;;;;2.27;1.80;;;;;;;22.81;33.63;98993.99;2168574;81;20937;-84
2022/07/15 14:01:55;;;;;;;7.85;1.87;;;;;;;22.70;34.18;99003.24;2169249;81;21616;-82
2022/07/15 14:04:55;;;;;;;2.80;1.47;;;;;;;22.42;35.18;99001.95;2169594;81;20976;-82
2022/07/15 14:07:56;;;;;;;4.95;1.90;;;;;;;22.27;36.19;99009.11;2169140;81;20968;-82
2022/07/15 14:10:56;;;;;;;8.25;2.02;;;;;;;22.42;33.56;99009.93;2169072;82;20933;-83
2022/07/15 14:13:56;;;;;;;2.47;1.50;;;;;;;22.33;33.85;99004.92;2170139;81;20913;-82
2022/07/15 14:16:58;;;;;;;6.12;1.75;;;;;;;22.33;34.26;99020.88;2169547;81;21011;-82
2022/07/15 14:19:58;;;;;;;3.85;1.17;;;;;;;22.23;34.68;99021.63;2169790;81;21337;-81